createdAt,value
2023-02-13T00:00:04.964Z,30.94
2023-02-13T00:01:04.933Z,29.93
2023-02-13T00:02:04.944Z,30.20
2023-02-13T00:03:04.863Z,29.82
2023-02-13T00:55:25.757Z,25.00
2023-02-13T00:56:26.594Z,25.00
2023-02-13T00:57:26.587Z,25.00
2023-02-13T00:58:26.639Z,25.00
2023-02-13T00:59:26.567Z,25.00
2023-02-13T01:00:26.562Z,25.00
2023-02-13T01:01:26.630Z,0.00
2023-02-13T01:02:26.547Z,0.00
2023-02-13T01:03:26.587Z,0.00
2023-02-13T01:04:26.533Z,0.00
2023-02-13T01:05:26.522Z,0.00
2023-02-13T01:06:26.539Z,0.00
2023-02-13T01:07:26.505Z,0.00
2023-02-13T01:08:26.501Z,0.00
2023-02-13T01:09:26.483Z,0.00
2023-02-13T01:10:26.482Z,18.62
2023-02-13T01:11:26.600Z,25.05
2023-02-13T01:12:26.469Z,26.41
2023-02-13T01:13:26.466Z,24.16
2023-02-13T01:14:26.467Z,25.88
2023-02-13T01:15:26.450Z,25.70
2023-02-13T01:16:26.497Z,25.95
2023-02-13T01:17:26.436Z,26.52
2023-02-13T01:18:26.442Z,25.00
2023-02-13T01:19:26.438Z,27.13
2023-02-13T01:20:26.427Z,25.00
2023-02-13T01:21:26.446Z,26.47
2023-02-13T01:22:26.445Z,25.11
2023-02-13T01:23:26.425Z,25.06
2023-02-13T01:24:26.402Z,28.05
2023-02-13T01:25:26.403Z,25.66
2023-02-13T01:26:26.431Z,29.19
2023-02-13T01:27:26.420Z,26.45
2023-02-13T01:28:26.513Z,26.45
2023-02-13T01:29:26.408Z,30.24
2023-02-13T01:30:26.382Z,26.34
2023-02-13T01:31:26.533Z,25.33
2023-02-13T01:32:26.407Z,31.72
2023-02-13T01:33:26.391Z,27.50
2023-02-13T01:34:26.365Z,27.70
2023-02-13T01:35:26.357Z,29.02
2023-02-13T01:36:26.358Z,27.07
2023-02-13T01:37:26.353Z,28.83
2023-02-13T01:38:26.340Z,28.42
2023-02-13T01:39:26.332Z,27.35
2023-02-13T01:40:26.334Z,27.48
2023-02-13T01:41:26.325Z,28.95
2023-02-13T01:42:26.320Z,26.60
2023-02-13T01:43:26.344Z,25.67
2023-02-13T01:44:26.315Z,26.48
2023-02-13T01:45:26.305Z,25.53
2023-02-13T01:46:26.386Z,27.52
2023-02-13T01:47:26.309Z,26.80
2023-02-13T01:48:26.307Z,29.67
2023-02-13T01:49:26.303Z,27.91
2023-02-13T01:50:26.296Z,25.08
2023-02-13T01:51:26.303Z,28.90
2023-02-13T01:52:26.305Z,28.79
2023-02-13T01:53:26.294Z,26.78
2023-02-13T01:54:26.276Z,25.00
2023-02-13T01:55:26.274Z,28.32
2023-02-13T01:56:26.306Z,26.05
2023-02-13T01:57:26.276Z,25.73
2023-02-13T01:58:26.324Z,25.98
2023-02-13T01:59:26.303Z,31.82
2023-02-13T02:00:26.258Z,27.38
2023-02-13T02:01:26.342Z,27.46
2023-02-13T02:02:26.390Z,29.44
2023-02-13T02:03:26.252Z,29.34
2023-02-13T02:04:26.228Z,27.92
2023-02-13T02:05:26.227Z,27.75
2023-02-13T02:06:26.217Z,25.68
2023-02-13T02:07:26.223Z,27.47
2023-02-13T02:08:26.206Z,28.35
2023-02-13T02:09:26.213Z,27.46
2023-02-13T02:10:26.196Z,27.54
2023-02-13T02:11:26.191Z,28.76
2023-02-13T02:12:26.193Z,27.99
2023-02-13T02:13:26.192Z,30.99
2023-02-13T02:14:26.183Z,29.22
2023-02-13T02:15:26.198Z,27.74
2023-02-13T02:16:26.334Z,28.33
2023-02-13T02:17:26.163Z,26.17
2023-02-13T02:18:26.155Z,27.46
2023-02-13T02:19:26.148Z,27.97
2023-02-13T02:20:26.151Z,25.52
2023-02-13T02:21:26.130Z,26.76
2023-02-13T02:22:26.131Z,27.99
2023-02-13T02:23:26.130Z,27.26
2023-02-13T02:24:26.130Z,25.71
2023-02-13T02:25:26.138Z,25.85
2023-02-13T02:26:26.119Z,25.65
2023-02-13T02:27:26.118Z,30.03
2023-02-13T02:28:26.191Z,32.29
2023-02-13T02:29:26.132Z,28.74
2023-02-13T02:30:26.131Z,28.18
2023-02-13T02:31:26.188Z,28.61
2023-02-13T02:32:26.108Z,30.37
2023-02-13T02:33:26.106Z,25.00
2023-02-13T02:34:26.102Z,27.76
2023-02-13T02:35:26.112Z,33.07
2023-02-13T02:36:26.113Z,27.18
2023-02-13T02:37:26.114Z,26.73
2023-02-13T02:38:26.101Z,27.04
2023-02-13T02:39:26.098Z,30.23
2023-02-13T02:40:26.111Z,26.19
2023-02-13T02:41:26.095Z,25.42
2023-02-13T02:42:26.098Z,26.45
2023-02-13T02:43:26.082Z,26.06
2023-02-13T02:44:26.094Z,28.20
2023-02-13T02:45:26.075Z,28.51
2023-02-13T02:46:26.129Z,27.60
2023-02-13T02:47:26.100Z,30.83
2023-02-13T02:48:26.079Z,26.63
2023-02-13T02:49:26.067Z,26.14
2023-02-13T02:50:26.059Z,28.00
2023-02-13T02:51:26.046Z,28.20
2023-02-13T02:52:26.047Z,26.15
2023-02-13T02:53:26.036Z,27.72
2023-02-13T02:54:26.027Z,30.04
2023-02-13T02:55:26.026Z,27.64
2023-02-13T02:56:26.028Z,27.12
2023-02-13T02:57:26.017Z,29.15
2023-02-13T02:58:26.015Z,30.04
2023-02-13T02:59:26.013Z,29.64
2023-02-13T03:00:26.022Z,26.24
2023-02-13T03:01:26.015Z,26.70
2023-02-13T03:02:26.012Z,27.09
2023-02-13T03:03:26.044Z,29.90
2023-02-13T03:04:26.078Z,31.13
2023-02-13T03:05:26.000Z,30.36
2023-02-13T03:06:26.001Z,29.08
2023-02-13T03:07:25.994Z,29.49
2023-02-13T03:08:25.996Z,29.45
2023-02-13T03:09:26.006Z,28.00
2023-02-13T03:10:25.981Z,29.17
2023-02-13T03:11:25.980Z,28.51
2023-02-13T03:12:25.985Z,29.60
2023-02-13T03:13:25.970Z,28.61
2023-02-13T03:14:25.967Z,28.72
2023-02-13T03:15:25.968Z,30.04
2023-02-13T03:16:25.995Z,30.23
2023-02-13T03:17:25.964Z,26.77
2023-02-13T03:18:25.959Z,30.87
2023-02-13T03:19:25.976Z,29.27
2023-02-13T03:20:25.946Z,29.96
2023-02-13T03:21:25.947Z,29.31
2023-02-13T03:22:25.944Z,32.08
2023-02-13T03:23:25.947Z,30.23
2023-02-13T03:24:25.957Z,30.90
2023-02-13T03:25:25.933Z,28.53
2023-02-13T03:26:25.926Z,30.38
2023-02-13T03:27:25.907Z,30.09
2023-02-13T03:28:26.026Z,28.27
2023-02-13T03:29:25.894Z,30.50
2023-02-13T03:30:25.958Z,30.67
2023-02-13T03:31:25.941Z,30.63
2023-02-13T03:32:25.882Z,30.95
2023-02-13T03:33:25.872Z,30.40
2023-02-13T03:34:25.865Z,28.71
2023-02-13T03:35:25.883Z,30.22
2023-02-13T03:36:25.859Z,30.79
2023-02-13T03:37:25.874Z,29.88
2023-02-13T03:38:25.857Z,29.29
2023-02-13T03:39:25.846Z,28.83
2023-02-13T03:40:25.838Z,28.70
2023-02-13T03:41:25.833Z,30.32
2023-02-13T03:42:25.845Z,32.12
2023-02-13T03:43:25.827Z,32.48
2023-02-13T03:44:25.822Z,30.07
2023-02-13T03:45:25.831Z,33.38
2023-02-13T03:46:25.817Z,30.75
2023-02-13T03:47:25.812Z,30.62
2023-02-13T03:48:25.815Z,31.53
2023-02-13T03:49:25.827Z,32.03
2023-02-13T03:50:25.803Z,31.64
2023-02-13T03:51:26.068Z,29.80
2023-02-13T03:52:25.799Z,33.87
2023-02-13T03:53:25.803Z,33.39
2023-02-13T03:54:25.789Z,30.28
2023-02-13T03:55:25.781Z,31.98
2023-02-13T03:56:25.779Z,31.64
2023-02-13T03:57:25.774Z,35.05
2023-02-13T03:58:25.759Z,31.57
2023-02-13T03:59:25.766Z,33.43
2023-02-13T04:00:25.764Z,32.33
2023-02-13T04:01:25.785Z,33.55
2023-02-13T04:02:25.809Z,30.26
2023-02-13T04:03:25.742Z,33.08
2023-02-13T04:04:26.046Z,28.31
2023-02-13T04:05:25.728Z,31.51
2023-02-13T04:06:25.721Z,32.80
2023-02-13T04:07:25.745Z,32.46
2023-02-13T04:08:25.709Z,31.25
2023-02-13T04:09:25.705Z,31.50
2023-02-13T04:10:25.705Z,32.18
2023-02-13T04:11:25.692Z,30.79
2023-02-13T04:12:25.676Z,32.52
2023-02-13T04:13:25.700Z,30.56
2023-02-13T04:14:25.672Z,30.58
2023-02-13T04:15:25.671Z,32.26
2023-02-13T04:16:25.664Z,29.29
2023-02-13T04:17:25.661Z,32.52
2023-02-13T04:18:25.650Z,30.36
2023-02-13T04:19:25.653Z,32.04
2023-02-13T04:20:25.633Z,31.64
2023-02-13T04:21:25.628Z,30.64
2023-02-13T04:22:25.619Z,31.45
2023-02-13T04:23:25.637Z,31.08
2023-02-13T04:24:25.614Z,33.23
2023-02-13T04:25:25.601Z,31.35
2023-02-13T04:26:25.594Z,35.37
2023-02-13T04:27:25.582Z,30.68
2023-02-13T04:28:25.668Z,33.49
2023-02-13T04:29:25.602Z,32.20
2023-02-13T04:30:25.653Z,33.63
2023-02-13T04:31:25.672Z,31.42
2023-02-13T04:32:25.553Z,34.68
2023-02-13T04:33:25.604Z,34.27
2023-02-13T04:34:25.526Z,34.95
2023-02-13T04:35:25.533Z,34.45
2023-02-13T04:36:25.524Z,31.62
2023-02-13T04:37:25.523Z,32.26
2023-02-13T04:38:25.523Z,33.60
2023-02-13T04:39:25.544Z,33.66
2023-02-13T04:40:25.502Z,33.40
2023-02-13T04:41:25.498Z,33.38
2023-02-13T04:42:25.495Z,34.39
2023-02-13T04:43:25.558Z,35.36
2023-02-13T04:44:25.492Z,32.22
2023-02-13T04:45:25.490Z,36.87
2023-02-13T04:46:25.583Z,35.54
2023-02-13T04:47:25.470Z,37.04
2023-02-13T04:48:25.462Z,33.97
2023-02-13T04:49:25.460Z,33.14
2023-02-13T04:50:25.457Z,33.55
2023-02-13T04:51:25.451Z,30.69
2023-02-13T04:52:25.455Z,34.10
2023-02-13T04:53:25.437Z,32.69
2023-02-13T04:54:25.438Z,31.94
2023-02-13T04:55:25.460Z,36.33
2023-02-13T04:56:25.413Z,35.48
2023-02-13T04:57:25.405Z,35.15
2023-02-13T04:58:25.397Z,31.85
2023-02-13T04:59:25.399Z,37.58
2023-02-13T05:00:25.392Z,34.25
2023-02-13T05:01:25.429Z,32.92
2023-02-13T05:02:25.362Z,35.31
2023-02-13T05:03:25.348Z,35.28
2023-02-13T05:04:25.444Z,30.79
2023-02-13T05:05:25.347Z,36.47
2023-02-13T05:06:25.331Z,36.12
2023-02-13T05:07:25.326Z,34.26
2023-02-13T05:08:25.316Z,31.64
2023-02-13T05:09:25.301Z,33.87
2023-02-13T05:10:25.302Z,32.87
2023-02-13T05:11:25.318Z,35.34
2023-02-13T05:12:25.282Z,32.67
2023-02-13T05:13:25.276Z,38.31
2023-02-13T05:14:25.271Z,32.94
2023-02-13T05:15:25.477Z,34.79
2023-02-13T05:16:26.068Z,36.91
2023-02-13T05:17:28.164Z,34.87
2023-02-13T05:18:25.233Z,35.10
2023-02-13T05:19:25.226Z,35.31
2023-02-13T05:20:25.223Z,34.40
2023-02-13T05:21:25.214Z,34.39
2023-02-13T05:22:25.213Z,32.68
2023-02-13T05:23:25.206Z,33.71
2023-02-13T05:24:25.197Z,35.85
2023-02-13T05:25:25.205Z,34.02
2023-02-13T05:26:25.188Z,37.64
2023-02-13T05:27:25.225Z,37.26
2023-02-13T05:28:25.231Z,34.70
2023-02-13T05:29:25.179Z,32.35
2023-02-13T05:30:25.173Z,38.22
2023-02-13T05:31:25.383Z,36.68
2023-02-13T05:32:25.163Z,35.20
2023-02-13T05:33:25.150Z,36.81
2023-02-13T05:34:25.178Z,34.12
2023-02-13T05:35:25.160Z,36.81
2023-02-13T05:36:25.142Z,35.60
2023-02-13T05:37:25.134Z,33.56
2023-02-13T05:38:25.134Z,35.40
2023-02-13T05:39:25.121Z,34.83
2023-02-13T05:40:25.120Z,36.16
2023-02-13T05:41:25.111Z,36.28
2023-02-13T05:42:25.105Z,37.45
2023-02-13T05:43:25.135Z,38.12
2023-02-13T05:44:25.103Z,37.74
2023-02-13T05:45:25.100Z,36.24
2023-02-13T05:46:25.225Z,38.02
2023-02-13T05:47:25.086Z,35.03
2023-02-13T05:48:25.084Z,35.03
2023-02-13T05:49:25.081Z,38.24
2023-02-13T05:50:25.073Z,34.18
2023-02-13T05:51:25.065Z,37.22
2023-02-13T05:52:25.064Z,38.59
2023-02-13T05:53:25.058Z,37.38
2023-02-13T05:54:25.048Z,37.55
2023-02-13T05:55:25.042Z,35.77
2023-02-13T05:56:25.036Z,36.87
2023-02-13T05:57:25.031Z,40.78
2023-02-13T05:58:25.045Z,38.63
2023-02-13T05:59:25.051Z,34.71
2023-02-13T06:00:25.024Z,34.53
2023-02-13T06:01:25.008Z,39.76
2023-02-13T06:02:25.028Z,39.60
2023-02-13T06:03:25.013Z,41.17
2023-02-13T06:04:24.994Z,39.66
2023-02-13T06:05:24.990Z,38.93
2023-02-13T06:06:24.985Z,39.25
2023-02-13T06:07:24.991Z,38.45
2023-02-13T06:08:24.991Z,37.64
2023-02-13T06:09:24.982Z,37.16
2023-02-13T06:10:24.981Z,38.28
2023-02-13T06:11:24.990Z,38.74
2023-02-13T06:12:24.983Z,39.75
2023-02-13T06:13:24.977Z,36.51
2023-02-13T06:14:24.972Z,36.43
2023-02-13T06:15:24.988Z,38.97
2023-02-13T06:16:25.100Z,40.61
2023-02-13T06:17:24.957Z,37.95
2023-02-13T06:18:24.953Z,39.63
2023-02-13T06:19:24.954Z,37.21
2023-02-13T06:20:24.952Z,39.18
2023-02-13T06:21:24.947Z,35.01
2023-02-13T06:22:24.946Z,39.54
2023-02-13T06:23:24.940Z,40.00
2023-02-13T06:24:24.933Z,36.70
2023-02-13T06:25:24.941Z,40.40
2023-02-13T06:26:24.934Z,40.13
2023-02-13T06:27:24.925Z,39.48
2023-02-13T06:28:25.014Z,38.94
2023-02-13T06:29:24.921Z,37.52
2023-02-13T06:30:24.968Z,40.31
2023-02-13T06:31:25.120Z,38.52
2023-02-13T06:32:24.913Z,39.09
2023-02-13T06:33:24.909Z,40.99
2023-02-13T06:34:24.897Z,41.65
2023-02-13T06:35:24.896Z,40.83
2023-02-13T06:36:24.921Z,37.37
2023-02-13T06:37:24.926Z,38.15
2023-02-13T06:38:24.965Z,40.88
2023-02-13T06:39:24.899Z,37.64
2023-02-13T06:40:24.898Z,37.40
2023-02-13T06:41:24.887Z,41.89
2023-02-13T06:42:24.892Z,39.46
2023-02-13T06:43:24.881Z,37.36
2023-02-13T06:44:24.880Z,40.22
2023-02-13T06:45:24.874Z,42.08
2023-02-13T06:46:24.933Z,39.78
2023-02-13T06:47:24.892Z,41.80
2023-02-13T06:48:24.857Z,41.35
2023-02-13T06:49:24.866Z,39.64
2023-02-13T06:50:24.845Z,40.38
2023-02-13T06:51:24.839Z,41.35
2023-02-13T06:52:24.825Z,37.52
2023-02-13T06:53:25.085Z,40.90
2023-02-13T06:54:34.535Z,38.31
2023-02-13T06:55:24.810Z,38.85
2023-02-13T06:56:24.795Z,39.31
2023-02-13T06:57:24.788Z,40.72
2023-02-13T06:58:24.845Z,42.83
2023-02-13T06:59:24.768Z,43.20
2023-02-13T07:00:26.259Z,38.11
2023-02-13T07:01:24.787Z,38.46
2023-02-13T07:02:24.792Z,39.22
2023-02-13T07:03:24.793Z,40.07
2023-02-13T07:04:24.738Z,42.56
2023-02-13T07:05:24.736Z,42.53
2023-02-13T07:06:24.734Z,42.98
2023-02-13T07:07:24.716Z,40.77
2023-02-13T07:08:24.717Z,39.38
2023-02-13T07:09:24.708Z,40.34
2023-02-13T07:10:24.732Z,40.40
2023-02-13T07:11:24.702Z,42.24
2023-02-13T07:12:24.681Z,43.67
2023-02-13T07:13:24.680Z,41.01
2023-02-13T07:14:24.662Z,43.01
2023-02-13T07:15:24.677Z,38.80
2023-02-13T07:16:24.743Z,41.68
2023-02-13T07:17:24.654Z,39.56
2023-02-13T07:18:24.636Z,40.00
2023-02-13T07:19:24.670Z,42.05
2023-02-13T07:20:24.628Z,39.44
2023-02-13T07:21:24.610Z,44.59
2023-02-13T07:22:24.605Z,41.31
2023-02-13T07:23:24.589Z,40.30
2023-02-13T07:24:24.581Z,40.56
2023-02-13T07:25:24.568Z,40.14
2023-02-13T07:26:24.565Z,41.09
2023-02-13T07:27:24.563Z,37.19
2023-02-13T07:28:24.614Z,39.04
2023-02-13T07:29:24.537Z,39.82
2023-02-13T07:30:24.594Z,40.27
2023-02-13T07:31:24.686Z,40.75
2023-02-13T07:32:24.513Z,39.41
2023-02-13T07:33:24.513Z,41.04
2023-02-13T07:34:24.500Z,43.35
2023-02-13T07:35:24.520Z,39.78
2023-02-13T07:36:24.491Z,39.01
2023-02-13T07:37:24.482Z,40.84
2023-02-13T07:38:24.476Z,36.40
2023-02-13T07:39:24.475Z,41.66
2023-02-13T07:40:24.463Z,41.13
2023-02-13T07:41:24.461Z,38.52
2023-02-13T07:42:24.456Z,38.76
2023-02-13T07:43:24.447Z,41.17
2023-02-13T07:44:24.447Z,42.86
2023-02-13T07:45:24.454Z,41.96
2023-02-13T07:46:24.475Z,40.60
2023-02-13T07:47:24.423Z,38.58
2023-02-13T07:48:24.425Z,41.92
2023-02-13T07:49:24.430Z,40.30
2023-02-13T07:50:24.404Z,42.53
2023-02-13T07:51:24.419Z,41.38
2023-02-13T07:52:24.483Z,40.01
2023-02-13T07:53:24.386Z,40.67
2023-02-13T07:54:24.391Z,38.19
2023-02-13T07:55:24.384Z,39.43
2023-02-13T07:56:24.379Z,42.12
2023-02-13T07:57:24.384Z,41.88
2023-02-13T07:58:24.365Z,41.04
2023-02-13T07:59:24.364Z,40.87
2023-02-13T08:01:24.434Z,41.65
2023-02-13T08:02:24.354Z,40.25
2023-02-13T08:03:24.553Z,41.72
2023-02-13T08:04:26.278Z,42.39
2023-02-13T08:05:24.359Z,45.70
2023-02-13T08:06:24.347Z,44.76
2023-02-13T08:07:24.392Z,45.18
2023-02-13T08:08:24.352Z,40.70
2023-02-13T08:09:24.347Z,43.42
2023-02-13T08:10:24.346Z,42.66
2023-02-13T08:11:24.337Z,41.71
2023-02-13T08:12:24.329Z,40.66
2023-02-13T08:13:24.310Z,43.31
2023-02-13T08:14:24.311Z,41.90
2023-02-13T08:15:24.307Z,44.05
2023-02-13T08:16:24.366Z,42.99
2023-02-13T08:17:24.353Z,39.99
2023-02-13T08:18:24.316Z,44.63
2023-02-13T08:19:24.292Z,44.39
2023-02-13T08:20:24.266Z,43.16
2023-02-13T08:21:24.260Z,41.15
2023-02-13T08:22:24.281Z,40.57
2023-02-13T08:23:24.371Z,41.26
2023-02-13T08:24:24.246Z,43.94
2023-02-13T08:25:24.244Z,42.75
2023-02-13T08:26:24.238Z,42.52
2023-02-13T08:27:24.265Z,42.59
2023-02-13T08:28:24.347Z,42.47
2023-02-13T08:29:24.237Z,43.66
2023-02-13T08:30:24.231Z,41.24
2023-02-13T08:31:24.379Z,44.15
2023-02-13T08:32:24.400Z,42.70
2023-02-13T08:33:24.242Z,44.57
2023-02-13T08:34:24.228Z,42.88
2023-02-13T08:35:24.223Z,41.51
2023-02-13T08:36:24.209Z,44.07
2023-02-13T08:37:24.206Z,42.12
2023-02-13T08:38:24.205Z,44.55
2023-02-13T08:39:24.233Z,42.62
2023-02-13T08:40:25.477Z,42.15
2023-02-13T08:41:24.204Z,42.30
2023-02-13T08:42:24.184Z,42.83
2023-02-13T08:43:24.182Z,43.02
2023-02-13T08:44:24.179Z,44.16
2023-02-13T08:45:24.176Z,43.56
2023-02-13T08:46:24.285Z,45.33
2023-02-13T08:47:24.166Z,44.60
2023-02-13T08:48:24.162Z,46.14
2023-02-13T08:49:24.166Z,43.76
2023-02-13T08:50:24.146Z,42.84
2023-02-13T08:51:24.143Z,42.55
2023-02-13T08:52:24.138Z,42.41
2023-02-13T08:53:24.136Z,41.52
2023-02-13T08:54:24.133Z,43.37
2023-02-13T08:55:24.161Z,41.99
2023-02-13T08:56:24.123Z,44.11
2023-02-13T08:57:24.113Z,46.41
2023-02-13T08:58:24.106Z,43.71
2023-02-13T08:59:24.108Z,44.77
2023-02-13T09:00:24.106Z,42.39
2023-02-13T09:01:24.192Z,42.45
2023-02-13T09:02:24.181Z,43.08
2023-02-13T09:03:24.091Z,43.07
2023-02-13T09:04:24.089Z,41.39
2023-02-13T09:05:24.081Z,43.45
2023-02-13T09:06:24.072Z,43.56
2023-02-13T09:07:24.067Z,45.04
2023-02-13T09:08:24.056Z,43.39
2023-02-13T09:09:24.043Z,45.40
2023-02-13T09:10:24.188Z,45.81
2023-02-13T09:11:24.068Z,43.81
2023-02-13T09:12:24.019Z,43.84
2023-02-13T09:13:24.038Z,43.75
2023-02-13T09:14:25.062Z,47.33
2023-02-13T09:15:23.999Z,45.48
2023-02-13T09:16:24.049Z,46.35
2023-02-13T09:17:23.976Z,42.52
2023-02-13T09:18:23.967Z,44.53
2023-02-13T09:19:23.953Z,44.06
2023-02-13T09:20:23.984Z,46.64
2023-02-13T09:21:23.935Z,43.14
2023-02-13T09:22:23.931Z,44.40
2023-02-13T09:23:23.919Z,42.65
2023-02-13T09:24:23.920Z,43.70
2023-02-13T09:25:23.911Z,45.83
2023-02-13T09:26:23.909Z,47.53
2023-02-13T09:27:23.921Z,41.64
2023-02-13T09:28:23.930Z,47.03
2023-02-13T09:29:23.887Z,45.12
2023-02-13T09:30:24.091Z,43.76
2023-02-13T09:31:24.043Z,46.10
2023-02-13T09:32:23.868Z,45.78
2023-02-13T09:33:23.839Z,45.36
2023-02-13T09:34:23.830Z,45.10
2023-02-13T09:35:23.837Z,45.81
2023-02-13T09:36:23.817Z,44.02
2023-02-13T09:37:23.809Z,43.91
2023-02-13T09:38:23.800Z,46.53
2023-02-13T09:39:23.800Z,45.90
2023-02-13T09:40:23.843Z,44.45
2023-02-13T09:41:23.770Z,43.85
2023-02-13T09:42:23.760Z,45.18
2023-02-13T09:43:23.778Z,45.54
2023-02-13T09:44:23.742Z,44.77
2023-02-13T09:45:23.738Z,47.72
2023-02-13T09:46:23.825Z,43.59
2023-02-13T09:47:23.731Z,43.88
2023-02-13T09:48:23.716Z,43.21
2023-02-13T09:49:23.713Z,45.59
2023-02-13T09:51:23.704Z,47.73
2023-02-13T09:52:23.695Z,48.52
2023-02-13T09:53:23.689Z,45.93
2023-02-13T09:54:23.685Z,43.96
2023-02-13T09:55:23.681Z,43.29
2023-02-13T09:56:23.667Z,43.07
2023-02-13T09:57:23.668Z,45.90
2023-02-13T09:58:23.651Z,44.64
2023-02-13T09:59:23.681Z,44.66
2023-02-13T10:00:23.647Z,45.38
2023-02-13T10:01:23.759Z,46.00
2023-02-13T10:02:23.628Z,44.19
2023-02-13T10:03:23.607Z,44.96
2023-02-13T10:04:23.596Z,48.14
2023-02-13T10:05:23.704Z,44.70
2023-02-13T10:06:23.573Z,47.05
2023-02-13T10:07:23.563Z,45.11
2023-02-13T10:08:23.564Z,47.54
2023-02-13T10:09:23.542Z,46.08
2023-02-13T10:10:23.526Z,46.19
2023-02-13T10:11:23.516Z,46.84
2023-02-13T10:12:23.509Z,44.77
2023-02-13T10:13:23.622Z,44.15
2023-02-13T10:14:23.484Z,46.97
2023-02-13T10:15:23.505Z,44.83
2023-02-13T10:16:23.628Z,45.97
2023-02-13T10:17:23.459Z,46.49
2023-02-13T10:18:23.433Z,43.21
2023-02-13T10:19:23.427Z,46.61
2023-02-13T10:20:23.416Z,45.59
2023-02-13T10:21:23.403Z,44.30
2023-02-13T10:22:23.407Z,45.94
2023-02-13T10:23:23.389Z,44.15
2023-02-13T10:24:23.383Z,41.93
2023-02-13T10:25:23.354Z,44.45
2023-02-13T10:26:23.360Z,46.16
2023-02-13T10:27:23.348Z,44.38
2023-02-13T10:28:23.348Z,45.14
2023-02-13T10:29:23.317Z,43.94
2023-02-13T10:30:23.318Z,46.05
2023-02-13T10:31:23.491Z,47.04
2023-02-13T10:32:23.387Z,42.94
2023-02-13T10:33:23.257Z,44.47
2023-02-13T10:34:23.258Z,44.71
2023-02-13T10:35:23.303Z,42.09
2023-02-13T10:36:23.251Z,41.52
2023-02-13T10:37:23.237Z,44.68
2023-02-13T10:38:23.228Z,44.45
2023-02-13T10:39:23.223Z,46.06
2023-02-13T10:40:23.217Z,47.91
2023-02-13T10:41:23.211Z,44.74
2023-02-13T10:42:23.204Z,42.39
2023-02-13T10:43:23.194Z,43.64
2023-02-13T10:44:23.173Z,45.33
2023-02-13T10:45:23.169Z,42.88
2023-02-13T10:46:23.240Z,44.23
2023-02-13T10:47:23.241Z,46.71
2023-02-13T10:48:25.383Z,47.64
2023-02-13T10:49:23.146Z,47.76
2023-02-13T10:50:23.108Z,47.69
2023-02-13T10:51:23.096Z,47.67
2023-02-13T10:52:23.093Z,46.03
2023-02-13T10:53:23.079Z,47.41
2023-02-13T10:54:23.066Z,42.59
2023-02-13T10:55:23.103Z,44.90
2023-02-13T10:56:23.054Z,46.41
2023-02-13T10:57:23.031Z,44.18
2023-02-13T10:58:23.017Z,43.65
2023-02-13T10:59:23.004Z,44.87
2023-02-13T11:00:22.994Z,44.44
2023-02-13T11:01:23.031Z,44.30
2023-02-13T11:02:22.986Z,44.36
2023-02-13T11:03:23.010Z,45.38
2023-02-13T11:04:23.017Z,45.03
2023-02-13T11:05:22.945Z,44.23
2023-02-13T11:06:22.929Z,44.29
2023-02-13T11:07:22.925Z,45.95
2023-02-13T11:08:22.907Z,42.22
2023-02-13T11:09:22.892Z,43.83
2023-02-13T11:10:22.881Z,45.24
2023-02-13T11:11:22.867Z,43.21
2023-02-13T11:12:22.851Z,43.85
2023-02-13T11:13:22.837Z,42.89
2023-02-13T11:14:22.832Z,44.21
2023-02-13T11:15:22.818Z,43.07
2023-02-13T11:16:22.872Z,44.19
2023-02-13T11:17:22.817Z,42.54
2023-02-13T11:18:22.783Z,44.58
2023-02-13T11:19:22.799Z,43.06
2023-02-13T11:20:22.751Z,44.89
2023-02-13T11:21:22.757Z,42.98
2023-02-13T11:22:22.795Z,40.27
2023-02-13T11:23:22.725Z,42.34
2023-02-13T11:24:22.714Z,41.47
2023-02-13T11:25:22.710Z,42.26
2023-02-13T11:26:22.683Z,42.57
2023-02-13T11:27:22.670Z,42.43
2023-02-13T11:28:22.726Z,40.81
2023-02-13T11:29:22.638Z,43.62
2023-02-13T11:30:22.631Z,43.78
2023-02-13T11:31:22.745Z,41.24
2023-02-13T11:32:22.651Z,42.43
2023-02-13T11:33:22.585Z,42.65
2023-02-13T11:34:22.575Z,44.10
2023-02-13T11:35:22.581Z,43.65
2023-02-13T11:36:22.543Z,42.27
2023-02-13T11:37:22.542Z,44.34
2023-02-13T11:38:22.534Z,43.93
2023-02-13T11:39:22.507Z,40.84
2023-02-13T11:40:22.517Z,42.38
2023-02-13T11:41:22.480Z,45.59
2023-02-13T11:42:22.471Z,43.13
2023-02-13T11:43:22.446Z,43.49
2023-02-13T11:44:22.426Z,42.77
2023-02-13T11:45:22.417Z,43.39
2023-02-13T11:46:22.443Z,43.93
2023-02-13T11:47:22.393Z,41.52
2023-02-13T11:48:22.366Z,40.57
2023-02-13T11:49:22.342Z,41.89
2023-02-13T11:50:22.324Z,42.58
2023-02-13T11:51:22.333Z,41.47
2023-02-13T11:52:22.293Z,41.37
2023-02-13T11:53:22.278Z,42.28
2023-02-13T11:54:22.252Z,41.97
2023-02-13T11:55:22.238Z,42.40
2023-02-13T11:56:22.218Z,42.67
2023-02-13T11:57:22.205Z,39.63
2023-02-13T11:58:22.324Z,42.21
2023-02-13T11:59:22.171Z,42.48
2023-02-13T12:00:22.480Z,40.80
2023-02-13T12:01:22.189Z,41.47
2023-02-13T12:02:22.198Z,43.00
2023-02-13T12:03:22.438Z,42.29
2023-02-13T12:04:22.101Z,41.44
2023-02-13T12:05:22.108Z,40.08
2023-02-13T12:06:22.082Z,41.27
2023-02-13T12:07:22.108Z,42.92
2023-02-13T12:08:22.055Z,38.97
2023-02-13T12:09:22.063Z,44.38
2023-02-13T12:10:22.038Z,45.09
2023-02-13T12:11:22.012Z,40.63
2023-02-13T12:12:22.012Z,39.40
2023-02-13T12:13:21.991Z,43.26
2023-02-13T12:14:21.967Z,41.61
2023-02-13T12:15:21.952Z,43.46
2023-02-13T12:16:21.993Z,41.32
2023-02-13T12:17:31.391Z,42.57
2023-02-13T12:18:21.922Z,42.89
2023-02-13T12:19:21.904Z,43.73
2023-02-13T12:20:21.891Z,43.38
2023-02-13T12:21:21.871Z,43.66
2023-02-13T12:22:21.867Z,38.96
2023-02-13T12:23:21.870Z,41.34
2023-02-13T12:24:21.831Z,39.89
2023-02-13T12:25:21.820Z,42.86
2023-02-13T12:26:21.799Z,44.69
2023-02-13T12:27:21.782Z,40.72
2023-02-13T12:28:21.829Z,41.33
2023-02-13T12:29:21.840Z,45.11
2023-02-13T12:30:21.734Z,39.73
2023-02-13T12:31:21.746Z,40.47
2023-02-13T12:32:21.683Z,46.17
2023-02-13T12:33:21.671Z,39.12
2023-02-13T12:34:21.654Z,41.23
2023-02-13T12:35:21.643Z,43.04
2023-02-13T12:36:21.630Z,41.40
2023-02-13T12:37:21.611Z,43.55
2023-02-13T12:38:21.596Z,41.66
2023-02-13T12:39:21.612Z,40.47
2023-02-13T12:40:21.566Z,41.05
2023-02-13T12:41:21.559Z,38.54
2023-02-13T12:42:21.546Z,40.01
2023-02-13T12:43:21.533Z,39.78
2023-02-13T12:44:21.556Z,41.22
2023-02-13T12:45:21.505Z,42.49
2023-02-13T12:46:21.495Z,39.89
2023-02-13T12:47:21.529Z,40.30
2023-02-13T12:48:21.479Z,37.64
2023-02-13T12:49:21.452Z,38.90
2023-02-13T12:50:21.440Z,39.15
2023-02-13T12:51:21.432Z,38.72
2023-02-13T12:52:21.416Z,39.57
2023-02-13T12:53:21.412Z,41.86
2023-02-13T12:54:21.397Z,40.10
2023-02-13T12:55:21.405Z,41.38
2023-02-13T12:56:21.360Z,39.94
2023-02-13T12:57:21.353Z,41.37
2023-02-13T12:58:21.346Z,38.69
2023-02-13T12:59:21.331Z,40.85
2023-02-13T13:00:21.307Z,38.72
2023-02-13T13:01:21.348Z,41.95
2023-02-13T13:02:21.640Z,41.52
2023-02-13T13:03:21.274Z,40.05
2023-02-13T13:04:21.254Z,40.13
2023-02-13T13:05:21.237Z,42.90
2023-02-13T13:06:21.226Z,38.13
2023-02-13T13:07:21.218Z,42.11
2023-02-13T13:08:21.209Z,42.31
2023-02-13T13:09:21.192Z,43.32
2023-02-13T13:10:21.169Z,39.18
2023-02-13T13:11:21.185Z,36.52
2023-02-13T13:12:21.207Z,40.87
2023-02-13T13:13:21.131Z,40.18
2023-02-13T13:14:21.121Z,39.06
2023-02-13T13:15:21.103Z,40.37
2023-02-13T13:16:21.169Z,40.54
2023-02-13T13:17:21.062Z,41.17
2023-02-13T13:18:21.043Z,38.53
2023-02-13T13:19:21.027Z,40.75
2023-02-13T13:20:21.019Z,42.22
2023-02-13T13:21:20.993Z,39.13
2023-02-13T13:22:20.975Z,39.22
2023-02-13T13:23:20.972Z,37.33
2023-02-13T13:24:20.945Z,41.18
2023-02-13T13:25:20.931Z,37.49
2023-02-13T13:26:20.917Z,40.57
2023-02-13T13:27:20.932Z,43.53
2023-02-13T13:28:20.897Z,39.73
2023-02-13T13:29:20.883Z,39.31
2023-02-13T13:30:20.983Z,41.45
2023-02-13T13:31:20.986Z,37.76
2023-02-13T13:32:20.838Z,39.36
2023-02-13T13:33:20.862Z,40.15
2023-02-13T13:34:20.824Z,37.61
2023-02-13T13:35:20.807Z,38.65
2023-02-13T13:36:20.805Z,39.74
2023-02-13T13:37:20.791Z,37.88
2023-02-13T13:38:20.767Z,37.61
2023-02-13T13:39:20.757Z,41.55
2023-02-13T13:40:20.742Z,39.72
2023-02-13T13:41:20.735Z,39.41
2023-02-13T13:42:20.724Z,40.18
2023-02-13T13:43:20.767Z,39.89
2023-02-13T13:44:20.712Z,36.93
2023-02-13T13:45:20.709Z,40.34